sensor_id;sensor_type;location;lat;lon;timestamp;temperature;humidity
20610;DHT22;10463;52.378;9.688;2023-03-13T00:00:09;20.50;21.30
20610;DHT22;10463;52.378;9.688;2023-03-13T00:02:54;20.50;21.30
20610;DHT22;10463;52.378;9.688;2023-03-13T00:05:38;20.50;21.30
20610;DHT22;10463;52.378;9.688;2023-03-13T00:08:24;20.50;21.30
20610;DHT22;10463;52.378;9.688;2023-03-13T00:11:11;20.50;21.30
20610;DHT22;10463;52.378;9.688;2023-03-13T00:13:59;20.50;21.30
20610;DHT22;10463;52.378;9.688;2023-03-13T00:16:45;20.50;21.30
20610;DHT22;10463;52.378;9.688;2023-03-13T00:19:30;20.50;21.30
20610;DHT22;10463;52.378;9.688;2023-03-13T00:22:15;20.50;21.30
20610;DHT22;10463;52.378;9.688;2023-03-13T00:24:59;20.50;21.30
20610;DHT22;10463;52.378;9.688;2023-03-13T00:27:44;20.50;21.30
20610;DHT22;10463;52.378;9.688;2023-03-13T00:30:30;20.50;21.30
20610;DHT22;10463;52.378;9.688;2023-03-13T00:33:14;20.50;21.30
20610;DHT22;10463;52.378;9.688;2023-03-13T00:36:00;20.50;21.30
20610;DHT22;10463;52.378;9.688;2023-03-13T00:38:45;20.50;21.30
20610;DHT22;10463;52.378;9.688;2023-03-13T00:41:32;20.50;21.30
20610;DHT22;10463;52.378;9.688;2023-03-13T00:44:17;20.50;21.30
20610;DHT22;10463;52.378;9.688;2023-03-13T00:47:03;20.50;21.30
20610;DHT22;10463;52.378;9.688;2023-03-13T00:49:48;20.50;21.30
20610;DHT22;10463;52.378;9.688;2023-03-13T00:52:33;20.50;21.30
20610;DHT22;10463;52.378;9.688;2023-03-13T00:55:18;20.50;21.30
20610;DHT22;10463;52.378;9.688;2023-03-13T00:58:03;20.50;21.30
20610;DHT22;10463;52.378;9.688;2023-03-13T01:00:47;20.50;21.30
20610;DHT22;10463;52.378;9.688;2023-03-13T01:03:34;20.50;21.30
20610;DHT22;10463;52.378;9.688;2023-03-13T01:06:21;20.50;21.30
20610;DHT22;10463;52.378;9.688;2023-03-13T01:09:07;20.50;21.30
20610;DHT22;10463;52.378;9.688;2023-03-13T01:11:54;20.50;21.80
20610;DHT22;10463;52.378;9.688;2023-03-13T01:14:38;20.50;21.30
20610;DHT22;10463;52.378;9.688;2023-03-13T01:17:23;20.50;21.30
20610;DHT22;10463;52.378;9.688;2023-03-13T01:20:11;20.60;21.40
20610;DHT22;10463;52.378;9.688;2023-03-13T01:22:56;20.50;21.30
20610;DHT22;10463;52.378;9.688;2023-03-13T01:25:40;20.50;21.30
20610;DHT22;10463;52.378;9.688;2023-03-13T01:28:26;20.50;21.30
20610;DHT22;10463;52.378;9.688;2023-03-13T01:31:13;20.60;21.40
20610;DHT22;10463;52.378;9.688;2023-03-13T01:34:00;20.60;21.40
20610;DHT22;10463;52.378;9.688;2023-03-13T01:36:46;20.60;21.40
20610;DHT22;10463;52.378;9.688;2023-03-13T01:39:34;20.50;21.30
20610;DHT22;10463;52.378;9.688;2023-03-13T01:42:19;20.60;21.40
20610;DHT22;10463;52.378;9.688;2023-03-13T01:45:04;20.50;21.40
20610;DHT22;10463;52.378;9.688;2023-03-13T01:47:50;20.60;21.40
20610;DHT22;10463;52.378;9.688;2023-03-13T01:50:43;20.50;21.30
20610;DHT22;10463;52.378;9.688;2023-03-13T01:53:41;20.60;21.40
20610;DHT22;10463;52.378;9.688;2023-03-13T01:56:33;20.50;21.40
20610;DHT22;10463;52.378;9.688;2023-03-13T01:59:23;20.60;21.40
20610;DHT22;10463;52.378;9.688;2023-03-13T02:02:08;20.60;21.40
20610;DHT22;10463;52.378;9.688;2023-03-13T02:04:56;20.60;21.40
20610;DHT22;10463;52.378;9.688;2023-03-13T02:07:47;20.60;21.50
20610;DHT22;10463;52.378;9.688;2023-03-13T02:10:40;20.60;21.40
20610;DHT22;10463;52.378;9.688;2023-03-13T02:13:28;20.60;21.40
20610;DHT22;10463;52.378;9.688;2023-03-13T02:16:13;20.60;21.40
20610;DHT22;10463;52.378;9.688;2023-03-13T02:18:58;20.60;21.50
20610;DHT22;10463;52.378;9.688;2023-03-13T02:21:51;20.60;21.40
20610;DHT22;10463;52.378;9.688;2023-03-13T02:24:42;20.60;21.50
20610;DHT22;10463;52.378;9.688;2023-03-13T02:27:32;20.60;21.40
20610;DHT22;10463;52.378;9.688;2023-03-13T02:30:17;20.50;21.40
20610;DHT22;10463;52.378;9.688;2023-03-13T02:33:03;20.60;21.40
20610;DHT22;10463;52.378;9.688;2023-03-13T02:35:48;20.60;21.50
20610;DHT22;10463;52.378;9.688;2023-03-13T02:38:40;20.60;21.50
20610;DHT22;10463;52.378;9.688;2023-03-13T02:41:28;20.60;21.40
20610;DHT22;10463;52.378;9.688;2023-03-13T02:44:16;20.60;21.50
20610;DHT22;10463;52.378;9.688;2023-03-13T02:47:01;20.60;21.50
20610;DHT22;10463;52.378;9.688;2023-03-13T02:49:46;20.60;21.40
20610;DHT22;10463;52.378;9.688;2023-03-13T02:52:35;20.60;21.50
20610;DHT22;10463;52.378;9.688;2023-03-13T02:55:26;20.60;22.00
20610;DHT22;10463;52.378;9.688;2023-03-13T02:58:12;20.60;21.50
20610;DHT22;10463;52.378;9.688;2023-03-13T03:00:58;20.60;21.50
20610;DHT22;10463;52.378;9.688;2023-03-13T03:03:51;20.60;21.50
20610;DHT22;10463;52.378;9.688;2023-03-13T03:06:36;20.60;21.40
20610;DHT22;10463;52.378;9.688;2023-03-13T03:09:22;20.60;21.50
20610;DHT22;10463;52.378;9.688;2023-03-13T03:12:12;20.60;22.00
20610;DHT22;10463;52.378;9.688;2023-03-13T03:14:57;20.60;21.50
20610;DHT22;10463;52.378;9.688;2023-03-13T03:17:44;20.60;21.50
20610;DHT22;10463;52.378;9.688;2023-03-13T03:20:29;20.60;21.50
20610;DHT22;10463;52.378;9.688;2023-03-13T03:23:14;20.60;21.50
20610;DHT22;10463;52.378;9.688;2023-03-13T03:25:59;20.60;21.40
20610;DHT22;10463;52.378;9.688;2023-03-13T03:28:44;20.60;21.50
20610;DHT22;10463;52.378;9.688;2023-03-13T03:31:31;20.60;21.40
20610;DHT22;10463;52.378;9.688;2023-03-13T03:34:18;20.60;21.50
20610;DHT22;10463;52.378;9.688;2023-03-13T03:37:04;20.60;21.50
20610;DHT22;10463;52.378;9.688;2023-03-13T03:39:48;20.60;21.50
20610;DHT22;10463;52.378;9.688;2023-03-13T03:42:33;20.60;21.50
20610;DHT22;10463;52.378;9.688;2023-03-13T03:45:18;20.60;21.40
20610;DHT22;10463;52.378;9.688;2023-03-13T03:48:03;20.60;21.50
20610;DHT22;10463;52.378;9.688;2023-03-13T03:50:49;20.60;21.50
20610;DHT22;10463;52.378;9.688;2023-03-13T03:53:35;20.60;21.50
20610;DHT22;10463;52.378;9.688;2023-03-13T03:56:19;20.70;21.50
20610;DHT22;10463;52.378;9.688;2023-03-13T03:59:12;20.60;21.50
20610;DHT22;10463;52.378;9.688;2023-03-13T04:02:00;20.70;21.60
20610;DHT22;10463;52.378;9.688;2023-03-13T04:04:47;20.70;21.50
20610;DHT22;10463;52.378;9.688;2023-03-13T04:07:44;20.60;21.50
20610;DHT22;10463;52.378;9.688;2023-03-13T04:10:29;20.70;21.50
20610;DHT22;10463;52.378;9.688;2023-03-13T04:13:15;20.60;21.50
20610;DHT22;10463;52.378;9.688;2023-03-13T04:16:06;20.70;21.50
20610;DHT22;10463;52.378;9.688;2023-03-13T04:18:51;20.70;21.60
20610;DHT22;10463;52.378;9.688;2023-03-13T04:21:37;20.70;21.60
20610;DHT22;10463;52.378;9.688;2023-03-13T04:24:31;20.70;21.50
20610;DHT22;10463;52.378;9.688;2023-03-13T04:27:16;20.70;21.60
20610;DHT22;10463;52.378;9.688;2023-03-13T04:30:04;20.70;21.60
20610;DHT22;10463;52.378;9.688;2023-03-13T04:32:55;20.70;21.50
20610;DHT22;10463;52.378;9.688;2023-03-13T04:35:59;20.70;21.60
20610;DHT22;10463;52.378;9.688;2023-03-13T04:39:07;20.70;21.60
20610;DHT22;10463;52.378;9.688;2023-03-13T04:42:11;20.70;21.60
20610;DHT22;10463;52.378;9.688;2023-03-13T04:45:11;20.70;21.60
20610;DHT22;10463;52.378;9.688;2023-03-13T04:48:16;20.70;21.60
20610;DHT22;10463;52.378;9.688;2023-03-13T04:51:24;20.70;21.60
20610;DHT22;10463;52.378;9.688;2023-03-13T04:54:29;20.70;21.60
20610;DHT22;10463;52.378;9.688;2023-03-13T04:57:25;20.70;21.60
20610;DHT22;10463;52.378;9.688;2023-03-13T05:00:21;20.70;21.60
20610;DHT22;10463;52.378;9.688;2023-03-13T05:03:22;20.70;21.60
20610;DHT22;10463;52.378;9.688;2023-03-13T05:06:24;20.70;21.60
20610;DHT22;10463;52.378;9.688;2023-03-13T05:09:34;20.70;21.60
20610;DHT22;10463;52.378;9.688;2023-03-13T05:12:41;20.70;21.60
20610;DHT22;10463;52.378;9.688;2023-03-13T05:15:34;20.70;21.60
20610;DHT22;10463;52.378;9.688;2023-03-13T05:18:41;20.70;21.60
20610;DHT22;10463;52.378;9.688;2023-03-13T05:21:48;20.70;21.60
20610;DHT22;10463;52.378;9.688;2023-03-13T05:24:52;20.70;21.60
20610;DHT22;10463;52.378;9.688;2023-03-13T05:27:54;20.70;21.60
20610;DHT22;10463;52.378;9.688;2023-03-13T05:30:58;20.70;21.60
20610;DHT22;10463;52.378;9.688;2023-03-13T05:34:12;20.70;21.70
20610;DHT22;10463;52.378;9.688;2023-03-13T05:37:16;20.70;21.70
20610;DHT22;10463;52.378;9.688;2023-03-13T05:40:30;20.70;21.60
20610;DHT22;10463;52.378;9.688;2023-03-13T05:43:45;20.70;21.60
20610;DHT22;10463;52.378;9.688;2023-03-13T05:46:48;20.70;21.70
20610;DHT22;10463;52.378;9.688;2023-03-13T05:49:45;20.70;21.70
20610;DHT22;10463;52.378;9.688;2023-03-13T05:52:48;20.70;21.60
20610;DHT22;10463;52.378;9.688;2023-03-13T05:55:50;20.70;21.70
20610;DHT22;10463;52.378;9.688;2023-03-13T05:58:59;20.70;21.70
20610;DHT22;10463;52.378;9.688;2023-03-13T06:02:10;20.70;21.70
20610;DHT22;10463;52.378;9.688;2023-03-13T06:05:00;20.70;21.60
20610;DHT22;10463;52.378;9.688;2023-03-13T06:07:45;20.70;21.70
20610;DHT22;10463;52.378;9.688;2023-03-13T06:10:30;20.70;21.70
20610;DHT22;10463;52.378;9.688;2023-03-13T06:13:17;20.70;21.70
20610;DHT22;10463;52.378;9.688;2023-03-13T06:16:05;20.80;21.80
20610;DHT22;10463;52.378;9.688;2023-03-13T06:19:08;20.80;21.80
20610;DHT22;10463;52.378;9.688;2023-03-13T06:21:52;20.80;21.70
20610;DHT22;10463;52.378;9.688;2023-03-13T06:24:37;20.80;21.80
20610;DHT22;10463;52.378;9.688;2023-03-13T06:27:22;20.80;21.70
20610;DHT22;10463;52.378;9.688;2023-03-13T06:30:09;20.70;22.20
20610;DHT22;10463;52.378;9.688;2023-03-13T06:32:57;20.80;21.80
20610;DHT22;10463;52.378;9.688;2023-03-13T06:35:42;20.80;21.80
20610;DHT22;10463;52.378;9.688;2023-03-13T06:38:28;20.80;21.80
20610;DHT22;10463;52.378;9.688;2023-03-13T06:41:13;20.80;21.80
20610;DHT22;10463;52.378;9.688;2023-03-13T06:43:58;20.80;21.80
20610;DHT22;10463;52.378;9.688;2023-03-13T06:46:43;20.80;21.80
20610;DHT22;10463;52.378;9.688;2023-03-13T06:49:29;20.80;21.80
20610;DHT22;10463;52.378;9.688;2023-03-13T06:52:14;20.80;21.80
20610;DHT22;10463;52.378;9.688;2023-03-13T06:54:59;20.80;21.80
20610;DHT22;10463;52.378;9.688;2023-03-13T06:57:49;20.80;21.80
20610;DHT22;10463;52.378;9.688;2023-03-13T07:00:33;20.80;21.80
20610;DHT22;10463;52.378;9.688;2023-03-13T07:03:18;20.80;21.80
20610;DHT22;10463;52.378;9.688;2023-03-13T07:06:05;20.80;21.80
20610;DHT22;10463;52.378;9.688;2023-03-13T07:08:50;20.70;21.80
20610;DHT22;10463;52.378;9.688;2023-03-13T07:11:34;20.80;21.80
20610;DHT22;10463;52.378;9.688;2023-03-13T07:14:19;20.80;21.80
20610;DHT22;10463;52.378;9.688;2023-03-13T07:17:04;20.80;21.80
20610;DHT22;10463;52.378;9.688;2023-03-13T07:19:48;20.80;21.80
20610;DHT22;10463;52.378;9.688;2023-03-13T07:22:34;20.80;21.80
20610;DHT22;10463;52.378;9.688;2023-03-13T07:25:19;20.80;21.80
20610;DHT22;10463;52.378;9.688;2023-03-13T07:28:04;20.80;21.80
20610;DHT22;10463;52.378;9.688;2023-03-13T07:30:48;20.80;21.80
20610;DHT22;10463;52.378;9.688;2023-03-13T07:33:34;20.80;21.80
20610;DHT22;10463;52.378;9.688;2023-03-13T07:36:19;20.80;21.80
20610;DHT22;10463;52.378;9.688;2023-03-13T07:39:05;20.80;21.80
20610;DHT22;10463;52.378;9.688;2023-03-13T07:41:49;20.80;21.90
20610;DHT22;10463;52.378;9.688;2023-03-13T07:44:35;20.80;21.90
20610;DHT22;10463;52.378;9.688;2023-03-13T07:47:20;20.80;21.80
20610;DHT22;10463;52.378;9.688;2023-03-13T07:50:05;20.80;21.90
20610;DHT22;10463;52.378;9.688;2023-03-13T07:52:50;20.80;21.90
20610;DHT22;10463;52.378;9.688;2023-03-13T07:55:36;20.80;21.90
20610;DHT22;10463;52.378;9.688;2023-03-13T07:58:23;20.80;21.90
20610;DHT22;10463;52.378;9.688;2023-03-13T08:01:09;20.80;21.90
20610;DHT22;10463;52.378;9.688;2023-03-13T08:03:54;20.80;21.90
20610;DHT22;10463;52.378;9.688;2023-03-13T08:06:39;20.80;21.90
20610;DHT22;10463;52.378;9.688;2023-03-13T08:09:25;20.80;22.00
20610;DHT22;10463;52.378;9.688;2023-03-13T08:12:11;20.80;21.90
20610;DHT22;10463;52.378;9.688;2023-03-13T08:14:56;20.80;22.00
20610;DHT22;10463;52.378;9.688;2023-03-13T08:17:40;20.80;22.00
20610;DHT22;10463;52.378;9.688;2023-03-13T08:20:25;20.90;22.00
20610;DHT22;10463;52.378;9.688;2023-03-13T08:23:10;20.90;22.00
20610;DHT22;10463;52.378;9.688;2023-03-13T08:25:54;20.80;22.00
20610;DHT22;10463;52.378;9.688;2023-03-13T08:28:41;20.90;22.10
20610;DHT22;10463;52.378;9.688;2023-03-13T08:31:29;20.90;22.10
20610;DHT22;10463;52.378;9.688;2023-03-13T08:34:15;20.90;22.10
20610;DHT22;10463;52.378;9.688;2023-03-13T08:37:00;20.90;22.10
20610;DHT22;10463;52.378;9.688;2023-03-13T08:39:45;20.90;22.10
20610;DHT22;10463;52.378;9.688;2023-03-13T08:42:32;20.80;22.00
20610;DHT22;10463;52.378;9.688;2023-03-13T08:45:18;20.90;22.10
20610;DHT22;10463;52.378;9.688;2023-03-13T08:48:03;20.90;22.10
20610;DHT22;10463;52.378;9.688;2023-03-13T08:51:01;20.90;22.20
20610;DHT22;10463;52.378;9.688;2023-03-13T08:53:46;20.90;22.20
20610;DHT22;10463;52.378;9.688;2023-03-13T08:56:32;20.90;22.20
20610;DHT22;10463;52.378;9.688;2023-03-13T08:59:16;20.90;22.20
20610;DHT22;10463;52.378;9.688;2023-03-13T09:02:02;20.90;22.20
20610;DHT22;10463;52.378;9.688;2023-03-13T09:04:48;20.90;22.20
20610;DHT22;10463;52.378;9.688;2023-03-13T09:07:33;20.90;22.20
20610;DHT22;10463;52.378;9.688;2023-03-13T09:10:17;20.90;22.20
20610;DHT22;10463;52.378;9.688;2023-03-13T09:13:02;20.90;22.30
20610;DHT22;10463;52.378;9.688;2023-03-13T09:15:53;20.90;22.30
20610;DHT22;10463;52.378;9.688;2023-03-13T09:18:40;20.90;22.30
20610;DHT22;10463;52.378;9.688;2023-03-13T09:21:27;20.90;22.30
20610;DHT22;10463;52.378;9.688;2023-03-13T09:24:12;20.90;22.30
20610;DHT22;10463;52.378;9.688;2023-03-13T09:26:57;20.90;22.30
20610;DHT22;10463;52.378;9.688;2023-03-13T09:29:41;20.90;22.30
20610;DHT22;10463;52.378;9.688;2023-03-13T09:32:26;20.90;22.30
20610;DHT22;10463;52.378;9.688;2023-03-13T09:35:12;20.90;22.30
20610;DHT22;10463;52.378;9.688;2023-03-13T09:37:56;20.90;22.30
20610;DHT22;10463;52.378;9.688;2023-03-13T09:40:45;21.00;22.40
20610;DHT22;10463;52.378;9.688;2023-03-13T09:43:40;21.00;22.40
20610;DHT22;10463;52.378;9.688;2023-03-13T09:46:35;21.00;22.40
20610;DHT22;10463;52.378;9.688;2023-03-13T09:49:29;21.00;22.40
20610;DHT22;10463;52.378;9.688;2023-03-13T09:52:26;21.00;22.40
20610;DHT22;10463;52.378;9.688;2023-03-13T09:55:17;21.00;22.50
20610;DHT22;10463;52.378;9.688;2023-03-13T09:58:12;21.00;22.50
20610;DHT22;10463;52.378;9.688;2023-03-13T10:01:04;21.00;22.50
20610;DHT22;10463;52.378;9.688;2023-03-13T10:04:01;21.00;22.50
20610;DHT22;10463;52.378;9.688;2023-03-13T10:06:48;21.00;22.50
20610;DHT22;10463;52.378;9.688;2023-03-13T10:09:34;21.00;22.50
20610;DHT22;10463;52.378;9.688;2023-03-13T10:12:24;21.00;22.50
20610;DHT22;10463;52.378;9.688;2023-03-13T10:15:32;21.00;22.50
20610;DHT22;10463;52.378;9.688;2023-03-13T10:18:21;21.00;22.50
20610;DHT22;10463;52.378;9.688;2023-03-13T10:21:15;21.00;22.50
20610;DHT22;10463;52.378;9.688;2023-03-13T10:24:08;21.00;22.50
20610;DHT22;10463;52.378;9.688;2023-03-13T10:26:57;21.00;22.50
20610;DHT22;10463;52.378;9.688;2023-03-13T10:29:42;21.00;22.50
20610;DHT22;10463;52.378;9.688;2023-03-13T10:32:27;21.00;22.50
20610;DHT22;10463;52.378;9.688;2023-03-13T10:35:20;21.10;22.60
20610;DHT22;10463;52.378;9.688;2023-03-13T10:38:10;21.10;22.70
20610;DHT22;10463;52.378;9.688;2023-03-13T10:40:57;21.10;22.70
20610;DHT22;10463;52.378;9.688;2023-03-13T10:43:51;21.10;22.70
20610;DHT22;10463;52.378;9.688;2023-03-13T10:46:41;21.10;22.70
20610;DHT22;10463;52.378;9.688;2023-03-13T10:49:27;21.10;22.70
20610;DHT22;10463;52.378;9.688;2023-03-13T10:52:28;21.10;22.70
20610;DHT22;10463;52.378;9.688;2023-03-13T10:55:18;21.10;22.80
20610;DHT22;10463;52.378;9.688;2023-03-13T10:58:04;21.20;22.90
20610;DHT22;10463;52.378;9.688;2023-03-13T11:00:51;21.10;22.80
20610;DHT22;10463;52.378;9.688;2023-03-13T11:03:36;21.20;22.90
20610;DHT22;10463;52.378;9.688;2023-03-13T11:06:28;21.20;22.90
20610;DHT22;10463;52.378;9.688;2023-03-13T11:09:16;21.20;23.00
20610;DHT22;10463;52.378;9.688;2023-03-13T11:12:04;21.20;23.00
20610;DHT22;10463;52.378;9.688;2023-03-13T11:14:56;21.20;22.90
20610;DHT22;10463;52.378;9.688;2023-03-13T11:17:47;21.20;22.90
20610;DHT22;10463;52.378;9.688;2023-03-13T11:20:35;21.30;23.00
20610;DHT22;10463;52.378;9.688;2023-03-13T11:23:26;21.30;23.00
20610;DHT22;10463;52.378;9.688;2023-03-13T11:26:17;21.30;23.00
20610;DHT22;10463;52.378;9.688;2023-03-13T11:29:11;21.30;23.00
20610;DHT22;10463;52.378;9.688;2023-03-13T11:32:09;21.30;23.50
20610;DHT22;10463;52.378;9.688;2023-03-13T11:34:59;21.30;23.00
20610;DHT22;10463;52.378;9.688;2023-03-13T11:37:45;21.30;23.10
20610;DHT22;10463;52.378;9.688;2023-03-13T11:40:37;21.30;23.00
20610;DHT22;10463;52.378;9.688;2023-03-13T11:43:34;21.40;23.10
20610;DHT22;10463;52.378;9.688;2023-03-13T11:46:42;21.40;23.10
20610;DHT22;10463;52.378;9.688;2023-03-13T11:50:15;21.40;23.20
20610;DHT22;10463;52.378;9.688;2023-03-13T11:53:20;21.40;23.30
20610;DHT22;10463;52.378;9.688;2023-03-13T11:56:14;21.40;23.40
20610;DHT22;10463;52.378;9.688;2023-03-13T11:59:16;21.40;23.50
20610;DHT22;10463;52.378;9.688;2023-03-13T12:02:11;21.50;23.70
20610;DHT22;10463;52.378;9.688;2023-03-13T12:05:03;21.50;23.70
20610;DHT22;10463;52.378;9.688;2023-03-13T12:07:56;21.50;23.70
20610;DHT22;10463;52.378;9.688;2023-03-13T12:10:47;21.50;23.60
20610;DHT22;10463;52.378;9.688;2023-03-13T12:13:39;21.60;23.80
20610;DHT22;10463;52.378;9.688;2023-03-13T12:16:36;21.60;23.80
20610;DHT22;10463;52.378;9.688;2023-03-13T12:19:29;21.60;23.80
20610;DHT22;10463;52.378;9.688;2023-03-13T12:22:22;21.60;23.80
20610;DHT22;10463;52.378;9.688;2023-03-13T12:25:16;21.70;23.90
20610;DHT22;10463;52.378;9.688;2023-03-13T12:28:14;21.70;23.90
20610;DHT22;10463;52.378;9.688;2023-03-13T12:31:18;21.70;23.90
20610;DHT22;10463;52.378;9.688;2023-03-13T12:34:15;21.80;24.00
20610;DHT22;10463;52.378;9.688;2023-03-13T12:37:09;21.80;24.00
20610;DHT22;10463;52.378;9.688;2023-03-13T12:39:59;21.80;24.00
20610;DHT22;10463;52.378;9.688;2023-03-13T12:42:56;21.90;24.00
20610;DHT22;10463;52.378;9.688;2023-03-13T12:45:59;21.90;24.10
20610;DHT22;10463;52.378;9.688;2023-03-13T12:49:03;21.90;24.00
20610;DHT22;10463;52.378;9.688;2023-03-13T12:56:21;22.00;24.10
20610;DHT22;10463;52.378;9.688;2023-03-13T12:59:15;22.00;24.10
20610;DHT22;10463;52.378;9.688;2023-03-13T13:02:02;22.00;24.10
20610;DHT22;10463;52.378;9.688;2023-03-13T13:04:59;22.10;24.70
20610;DHT22;10463;52.378;9.688;2023-03-13T13:07:53;22.10;24.20
20610;DHT22;10463;52.378;9.688;2023-03-13T13:10:38;22.10;24.20
20610;DHT22;10463;52.378;9.688;2023-03-13T13:13:29;22.20;24.30
20610;DHT22;10463;52.378;9.688;2023-03-13T13:16:19;22.20;24.30
20610;DHT22;10463;52.378;9.688;2023-03-13T13:19:47;22.20;24.30
20610;DHT22;10463;52.378;9.688;2023-03-13T13:22:48;22.30;24.30
20610;DHT22;10463;52.378;9.688;2023-03-13T13:25:34;22.30;24.30
20610;DHT22;10463;52.378;9.688;2023-03-13T13:28:34;22.30;24.20
20610;DHT22;10463;52.378;9.688;2023-03-13T13:31:56;22.40;24.20
20610;DHT22;10463;52.378;9.688;2023-03-13T13:35:01;22.40;24.20
20610;DHT22;10463;52.378;9.688;2023-03-13T13:37:47;22.40;24.20
20610;DHT22;10463;52.378;9.688;2023-03-13T13:40:32;22.50;24.20
20610;DHT22;10463;52.378;9.688;2023-03-13T13:43:23;22.50;24.20
20610;DHT22;10463;52.378;9.688;2023-03-13T13:46:25;22.50;24.30
20610;DHT22;10463;52.378;9.688;2023-03-13T13:49:29;22.50;24.30
20610;DHT22;10463;52.378;9.688;2023-03-13T13:52:40;22.60;24.40
20610;DHT22;10463;52.378;9.688;2023-03-13T13:55:50;22.60;24.40
20610;DHT22;10463;52.378;9.688;2023-03-13T13:58:42;22.60;24.40
20610;DHT22;10463;52.378;9.688;2023-03-13T14:01:28;22.60;24.40
20610;DHT22;10463;52.378;9.688;2023-03-13T14:04:26;22.70;24.50
20610;DHT22;10463;52.378;9.688;2023-03-13T14:07:23;22.70;24.50
20610;DHT22;10463;52.378;9.688;2023-03-13T14:10:23;22.70;24.60
20610;DHT22;10463;52.378;9.688;2023-03-13T14:13:14;22.80;24.70
20610;DHT22;10463;52.378;9.688;2023-03-13T14:16:20;22.80;24.70
20610;DHT22;10463;52.378;9.688;2023-03-13T14:19:24;22.80;24.70
20610;DHT22;10463;52.378;9.688;2023-03-13T14:22:11;22.90;24.70
20610;DHT22;10463;52.378;9.688;2023-03-13T14:24:58;22.90;24.60
20610;DHT22;10463;52.378;9.688;2023-03-13T14:27:50;22.90;24.60
20610;DHT22;10463;52.378;9.688;2023-03-13T14:30:41;22.90;24.70
20610;DHT22;10463;52.378;9.688;2023-03-13T14:33:27;22.90;24.70
20610;DHT22;10463;52.378;9.688;2023-03-13T14:36:14;23.00;24.90
20610;DHT22;10463;52.378;9.688;2023-03-13T14:39:00;23.00;24.80
20610;DHT22;10463;52.378;9.688;2023-03-13T14:41:47;23.00;24.80
20610;DHT22;10463;52.378;9.688;2023-03-13T14:44:34;23.10;24.90
20610;DHT22;10463;52.378;9.688;2023-03-13T14:47:23;23.10;24.90
20610;DHT22;10463;52.378;9.688;2023-03-13T14:50:12;23.10;24.80
20610;DHT22;10463;52.378;9.688;2023-03-13T14:53:03;23.20;24.90
20610;DHT22;10463;52.378;9.688;2023-03-13T14:56:11;23.20;24.90
20610;DHT22;10463;52.378;9.688;2023-03-13T14:59:14;23.30;24.90
20610;DHT22;10463;52.378;9.688;2023-03-13T15:02:11;23.30;24.80
20610;DHT22;10463;52.378;9.688;2023-03-13T15:05:01;23.30;24.80
20610;DHT22;10463;52.378;9.688;2023-03-13T15:07:55;23.40;24.80
20610;DHT22;10463;52.378;9.688;2023-03-13T15:10:45;23.40;24.80
20610;DHT22;10463;52.378;9.688;2023-03-13T15:13:36;23.40;24.70
20610;DHT22;10463;52.378;9.688;2023-03-13T15:16:26;23.40;24.70
20610;DHT22;10463;52.378;9.688;2023-03-13T15:19:17;23.50;24.70
20610;DHT22;10463;52.378;9.688;2023-03-13T15:22:04;23.50;24.60
20610;DHT22;10463;52.378;9.688;2023-03-13T15:24:55;23.50;24.60
20610;DHT22;10463;52.378;9.688;2023-03-13T15:27:42;23.50;24.60
20610;DHT22;10463;52.378;9.688;2023-03-13T15:30:27;23.50;24.50
20610;DHT22;10463;52.378;9.688;2023-03-13T15:33:14;23.50;24.50
20610;DHT22;10463;52.378;9.688;2023-03-13T15:36:00;23.60;24.60
20610;DHT22;10463;52.378;9.688;2023-03-13T15:38:44;23.60;24.50
20610;DHT22;10463;52.378;9.688;2023-03-13T15:41:30;23.60;24.50
20610;DHT22;10463;52.378;9.688;2023-03-13T15:44:16;23.60;24.50
20610;DHT22;10463;52.378;9.688;2023-03-13T15:47:00;23.60;24.50
20610;DHT22;10463;52.378;9.688;2023-03-13T15:49:46;23.60;24.50
20610;DHT22;10463;52.378;9.688;2023-03-13T15:52:31;23.60;24.50
20610;DHT22;10463;52.378;9.688;2023-03-13T15:55:18;23.60;24.50
20610;DHT22;10463;52.378;9.688;2023-03-13T15:58:02;23.60;24.50
20610;DHT22;10463;52.378;9.688;2023-03-13T16:00:48;23.70;24.50
20610;DHT22;10463;52.378;9.688;2023-03-13T16:03:33;23.70;24.50
20610;DHT22;10463;52.378;9.688;2023-03-13T16:06:19;23.70;24.50
20610;DHT22;10463;52.378;9.688;2023-03-13T16:09:05;23.70;24.50
20610;DHT22;10463;52.378;9.688;2023-03-13T16:11:50;23.70;24.40
20610;DHT22;10463;52.378;9.688;2023-03-13T16:14:36;23.70;24.40
20610;DHT22;10463;52.378;9.688;2023-03-13T16:17:22;23.70;24.40
20610;DHT22;10463;52.378;9.688;2023-03-13T16:20:14;23.70;24.40
20610;DHT22;10463;52.378;9.688;2023-03-13T16:23:00;23.70;24.40
20610;DHT22;10463;52.378;9.688;2023-03-13T16:25:48;23.70;24.40
20610;DHT22;10463;52.378;9.688;2023-03-13T16:28:33;23.70;24.30
20610;DHT22;10463;52.378;9.688;2023-03-13T16:31:20;23.70;24.30
20610;DHT22;10463;52.378;9.688;2023-03-13T16:34:07;23.70;24.30
20610;DHT22;10463;52.378;9.688;2023-03-13T16:36:52;23.70;24.30
20610;DHT22;10463;52.378;9.688;2023-03-13T16:39:36;23.70;24.30
20610;DHT22;10463;52.378;9.688;2023-03-13T16:42:21;23.70;24.30
20610;DHT22;10463;52.378;9.688;2023-03-13T16:45:08;23.70;24.30
20610;DHT22;10463;52.378;9.688;2023-03-13T16:47:52;23.70;24.30
20610;DHT22;10463;52.378;9.688;2023-03-13T16:50:39;23.70;24.30
20610;DHT22;10463;52.378;9.688;2023-03-13T16:53:24;23.70;24.30
20610;DHT22;10463;52.378;9.688;2023-03-13T16:56:21;23.70;24.30
20610;DHT22;10463;52.378;9.688;2023-03-13T16:59:11;23.70;24.30
20610;DHT22;10463;52.378;9.688;2023-03-13T17:01:56;23.70;24.30
20610;DHT22;10463;52.378;9.688;2023-03-13T17:04:41;23.70;24.30
20610;DHT22;10463;52.378;9.688;2023-03-13T17:07:27;23.70;24.30
20610;DHT22;10463;52.378;9.688;2023-03-13T17:10:19;23.70;24.20
20610;DHT22;10463;52.378;9.688;2023-03-13T17:13:04;23.70;24.30
20610;DHT22;10463;52.378;9.688;2023-03-13T17:15:50;23.70;24.20
20610;DHT22;10463;52.378;9.688;2023-03-13T17:18:35;23.70;24.20
20610;DHT22;10463;52.378;9.688;2023-03-13T17:21:22;23.60;24.20
20610;DHT22;10463;52.378;9.688;2023-03-13T17:24:08;23.60;24.20
20610;DHT22;10463;52.378;9.688;2023-03-13T17:26:53;23.60;24.20
20610;DHT22;10463;52.378;9.688;2023-03-13T17:29:38;23.60;24.20
20610;DHT22;10463;52.378;9.688;2023-03-13T17:32:22;23.60;24.20
20610;DHT22;10463;52.378;9.688;2023-03-13T17:35:09;23.60;24.20
20610;DHT22;10463;52.378;9.688;2023-03-13T17:37:54;23.60;24.20
20610;DHT22;10463;52.378;9.688;2023-03-13T17:40:39;23.60;24.20
20610;DHT22;10463;52.378;9.688;2023-03-13T17:43:24;23.60;24.20
20610;DHT22;10463;52.378;9.688;2023-03-13T17:46:16;23.60;24.20
20610;DHT22;10463;52.378;9.688;2023-03-13T17:49:02;23.60;24.20
20610;DHT22;10463;52.378;9.688;2023-03-13T17:51:47;23.60;24.20
20610;DHT22;10463;52.378;9.688;2023-03-13T17:54:33;23.60;24.20
20610;DHT22;10463;52.378;9.688;2023-03-13T17:57:21;23.60;24.20